Time;durP1;ratioP1;P1;durP2;ratioP2;P2;SDS_P1;SDS_P2;PMS_P1;PMS_P2;Temp;Humidity;BMP_temperature;BMP_pressure;BME280_temperature;BME280_humidity;BME280_pressure;Samples;Min_cycle;Max_cycle;Signal;HPM_P1;HPM_P2
2020/12/13 00:00:39;;;;;;;;;;;;;;;0.22;100.00;92059.47;1063586;55;20166;-84
2020/12/13 00:01:39;;;;;;;;;;;;;;;0.31;100.00;92058.31;1063866;55;20253;-84
2020/12/13 00:02:40;;;;;;;;;;;;;;;0.37;100.00;92067.34;1065737;55;20176;-85
2020/12/13 00:03:41;;;;;;;;;;;;;;;0.28;100.00;92066.97;1061595;55;20643;-86
2020/12/13 00:04:42;;;;;;;;;;;;;;;0.32;100.00;92060.59;1065849;55;20192;-84
2020/12/13 00:05:42;;;;;;;;;;;;;;;0.20;100.00;92055.72;1063858;55;20181;-83
2020/12/13 00:06:43;;;;;;;;;;;;;;;0.23;100.00;92068.13;1063487;55;20150;-84
2020/12/13 00:07:43;;;;;;;;;;;;;;;0.35;100.00;92066.97;1065690;55;20626;-84
2020/12/13 00:08:44;;;;;;;;;;;;;;;0.45;100.00;92074.84;1065577;55;20165;-85
2020/12/13 00:09:44;;;;;;;;;;;;;;;0.35;100.00;92067.75;1061286;56;20284;-84
2020/12/13 00:10:44;;;;;;;;;;;;;;;0.29;100.00;92063.97;1063406;55;20255;-82
2020/12/13 00:11:45;;;;;;;;;;;;;;;0.27;100.00;92071.50;1063592;55;20180;-84
2020/12/13 00:12:45;;;;;;;;;;;;;;;0.27;100.00;92068.88;1061297;56;20175;-84
2020/12/13 00:13:46;;;;;;;;;;;;;;;0.24;100.00;92062.47;1061319;56;20153;-84
2020/12/13 00:14:46;;;;;;;;;;;;;;;0.21;100.00;92065.09;1063987;55;20631;-84
2020/12/13 00:15:46;;;;;;;;;;;;;;;0.19;100.00;92064.72;1065654;55;20634;-86
2020/12/13 00:16:50;;;;;;;;;;;;;;;0.16;100.00;92070.72;1061310;55;20185;-84
2020/12/13 00:17:51;;;;;;;;;;;;;;;0.16;100.00;92068.09;1061805;55;20184;-85
2020/12/13 00:18:52;;;;;;;;;;;;;;;0.18;100.00;92077.13;1064623;55;20195;-85
2020/12/13 00:19:52;;;;;;;;;;;;;;;0.20;100.00;92074.09;1066038;55;20598;-84
2020/12/13 00:20:53;;;;;;;;;;;;;;;0.18;100.00;92079.75;1063802;55;20193;-85
2020/12/13 00:21:54;;;;;;;;;;;;;;;0.19;100.00;92075.25;1065969;55;20189;-85
2020/12/13 00:22:55;;;;;;;;;;;;;;;0.17;100.00;92072.97;1063736;55;20657;-83
2020/12/13 00:23:57;;;;;;;;;;;;;;;0.18;100.00;92082.37;1059503;56;20272;-83
2020/12/13 00:24:57;;;;;;;;;;;;;;;0.18;100.00;92073.75;1061613;56;20215;-84
2020/12/13 00:25:58;;;;;;;;;;;;;;;0.21;100.00;92084.22;1064467;55;20213;-85
2020/12/13 00:26:58;;;;;;;;;;;;;;;0.20;100.00;92079.38;1063636;55;20193;-83
2020/12/13 00:27:59;;;;;;;;;;;;;;;0.18;100.00;92085.00;1059460;56;20190;-84
2020/12/13 00:28:59;;;;;;;;;;;;;;;0.19;100.00;92088.38;1062585;56;20173;-84
2020/12/13 00:30:00;;;;;;;;;;;;;;;0.18;100.00;92082.37;1068011;55;21015;-85
2020/12/13 00:31:01;;;;;;;;;;;;;;;0.19;100.00;92086.50;1065745;55;20205;-84
2020/12/13 00:32:01;;;;;;;;;;;;;;;0.29;100.00;92092.88;1061530;56;20653;-84
2020/12/13 00:33:04;;;;;;;;;;;;;;;0.30;100.00;92081.22;1061464;56;20193;-83
2020/12/13 00:34:05;;;;;;;;;;;;;;;0.27;100.00;92087.25;1064730;55;20157;-86
2020/12/13 00:35:05;;;;;;;;;;;;;;;0.25;100.00;92092.88;1065908;55;20168;-84
2020/12/13 00:36:07;;;;;;;;;;;;;;;0.20;100.00;92090.63;1065760;55;20165;-84
2020/12/13 00:37:07;;;;;;;;;;;;;;;0.16;100.00;92095.13;1068049;55;20258;-86
2020/12/13 00:38:08;;;;;;;;;;;;;;;0.18;100.00;92087.63;1067979;55;20675;-85
2020/12/13 00:39:08;;;;;;;;;;;;;;;0.19;100.00;92091.75;1065800;55;20245;-84
2020/12/13 00:40:11;;;;;;;;;;;;;;;0.22;100.00;92091.00;1068206;55;20157;-86
2020/12/13 00:41:12;;;;;;;;;;;;;;;0.24;100.00;92093.25;1068199;55;20173;-84
2020/12/13 00:42:12;;;;;;;;;;;;;;;0.21;100.00;92091.38;1068351;55;20184;-84
2020/12/13 00:43:13;;;;;;;;;;;;;;;0.19;100.00;92088.38;1065760;55;20231;-83
2020/12/13 00:44:14;;;;;;;;;;;;;;;0.16;100.00;92089.87;1067735;55;20282;-84
2020/12/13 00:45:14;;;;;;;;;;;;;;;0.13;100.00;92095.88;1068080;55;20184;-86
2020/12/13 00:46:16;;;;;;;;;;;;;;;0.17;100.00;92090.63;1070332;55;20186;-84
2020/12/13 00:47:16;;;;;;;;;;;;;;;0.15;100.00;92091.00;1068054;55;20153;-84
2020/12/13 00:48:19;;;;;;;;;;;;;;;0.18;100.00;92100.03;1061634;55;20247;-84
2020/12/13 00:49:19;;;;;;;;;;;;;;;0.27;100.00;92107.53;1065848;55;20239;-85
2020/12/13 00:50:20;;;;;;;;;;;;;;;0.21;100.00;92101.88;1070195;55;20149;-85
2020/12/13 00:51:21;;;;;;;;;;;;;;;0.19;100.00;92101.50;1070677;55;20172;-84
2020/12/13 00:52:22;;;;;;;;;;;;;;;0.19;100.00;92097.00;1067966;55;20157;-84
2020/12/13 00:53:22;;;;;;;;;;;;;;;0.17;100.00;92098.50;1065797;55;20933;-84
2020/12/13 00:54:24;;;;;;;;;;;;;;;0.14;100.00;92105.28;1063738;55;20154;-86
2020/12/13 00:55:24;;;;;;;;;;;;;;;0.15;100.00;92106.03;1068037;55;20270;-84
2020/12/13 00:56:25;;;;;;;;;;;;;;;0.12;100.00;92107.50;1067992;55;20153;-85
2020/12/13 00:57:26;;;;;;;;;;;;;;;0.10;100.00;92103.75;1063730;55;20266;-85
2020/12/13 00:58:28;;;;;;;;;;;;;;;0.15;100.00;92101.50;1061421;55;20193;-84
2020/12/13 00:59:28;;;;;;;;;;;;;;;0.12;100.00;92115.38;1065941;55;20720;-84
2020/12/13 01:00:29;;;;;;;;;;;;;;;0.11;100.00;92115.78;1068058;55;20204;-84
2020/12/13 01:01:29;;;;;;;;;;;;;;;0.13;100.00;92108.25;1065937;55;20177;-85
2020/12/13 01:02:31;;;;;;;;;;;;;;;0.17;100.00;92112.37;1063910;55;20188;-84
2020/12/13 01:03:31;;;;;;;;;;;;;;;0.15;100.00;92116.53;1068234;55;20180;-84
2020/12/13 01:04:32;;;;;;;;;;;;;;;0.16;100.00;92110.88;1068048;55;20670;-84
2020/12/13 01:05:33;;;;;;;;;;;;;;;0.17;100.00;92109.00;1068090;55;21133;-84
2020/12/13 01:06:34;;;;;;;;;;;;;;;0.11;100.00;92118.41;1070284;55;20208;-84
2020/12/13 01:07:36;;;;;;;;;;;;;;;0.13;100.00;92118.75;1068199;55;20583;-84
2020/12/13 01:08:36;;;;;;;;;;;;;;;0.09;100.00;92120.63;1068148;55;20173;-84
2020/12/13 01:09:36;;;;;;;;;;;;;;;0.09;100.00;92113.53;1068200;55;20197;-85
2020/12/13 01:10:37;;;;;;;;;;;;;;;0.11;100.00;92113.88;1063863;55;20161;-86
2020/12/13 01:11:37;;;;;;;;;;;;;;;0.10;100.00;92114.28;1063695;55;20154;-84
2020/12/13 01:12:40;;;;;;;;;;;;;;;0.11;100.00;92119.16;1063822;55;20157;-85
2020/12/13 01:13:41;;;;;;;;;;;;;;;0.09;100.00;92115.38;1063976;55;20255;-85
2020/12/13 01:14:41;;;;;;;;;;;;;;;0.09;100.00;92115.38;1066009;55;20674;-84
2020/12/13 01:15:42;;;;;;;;;;;;;;;0.07;100.00;92115.75;1068010;55;20231;-83
2020/12/13 01:16:42;;;;;;;;;;;;;;;0.07;100.00;92118.38;1065802;55;20181;-84
2020/12/13 01:17:43;;;;;;;;;;;;;;;0.08;100.00;92119.87;1063573;55;20157;-83
2020/12/13 01:18:44;;;;;;;;;;;;;;;0.09;100.00;92125.88;1066023;55;20169;-85
2020/12/13 01:19:47;;;;;;;;;;;;;;;0.06;100.00;92126.66;1065921;55;20165;-85
2020/12/13 01:20:47;;;;;;;;;;;;;;;0.04;100.00;92126.25;1068002;55;20160;-84
2020/12/13 01:21:48;;;;;;;;;;;;;;;0.06;100.00;92130.03;1070180;55;20176;-84
2020/12/13 01:22:48;;;;;;;;;;;;;;;0.07;100.00;92139.41;1067983;55;20715;-85
2020/12/13 01:23:49;;;;;;;;;;;;;;;0.06;100.00;92126.66;1066022;55;20165;-86
2020/12/13 01:24:50;;;;;;;;;;;;;;;0.02;100.00;92134.53;1061519;56;20204;-86
2020/12/13 01:25:50;;;;;;;;;;;;;;;0.09;100.00;92129.28;1065804;55;20165;-84
2020/12/13 01:26:51;;;;;;;;;;;;;;;0.11;100.00;92131.53;1068016;55;20683;-83
2020/12/13 01:27:52;;;;;;;;;;;;;;;0.07;100.00;92130.78;1067960;55;20168;-83
2020/12/13 01:28:53;;;;;;;;;;;;;;;0.12;100.00;92133.03;1070013;55;20183;-84
2020/12/13 01:29:55;;;;;;;;;;;;;;;0.11;100.00;92132.28;1067939;55;20691;-84
2020/12/13 01:30:55;;;;;;;;;;;;;;;0.11;100.00;92136.78;1065696;55;20154;-85
2020/12/13 01:31:56;;;;;;;;;;;;;;;0.12;100.00;92136.41;1065601;55;20253;-84
2020/12/13 01:32:58;;;;;;;;;;;;;;;0.06;100.00;92137.91;1063491;55;20257;-83
2020/12/13 01:33:59;;;;;;;;;;;;;;;0.10;100.00;92138.66;1061545;56;20182;-84
2020/12/13 01:35:00;;;;;;;;;;;;;;;0.11;100.00;92147.28;1061625;56;20267;-84
2020/12/13 01:36:00;;;;;;;;;;;;;;;0.08;100.00;92130.38;1063544;56;20324;-85
2020/12/13 01:37:01;;;;;;;;;;;;;;;0.07;100.00;92136.03;1067619;55;20233;-85
2020/12/13 01:38:02;;;;;;;;;;;;;;;0.15;100.00;92146.19;1067967;55;20184;-85
2020/12/13 01:39:03;;;;;;;;;;;;;;;0.12;100.00;92143.53;1067908;55;20573;-84
2020/12/13 01:40:07;;;;;;;;;;;;;;;0.12;100.00;92138.28;1067850;55;20165;-84
2020/12/13 01:41:09;;;;;;;;;;;;;;;0.13;100.00;92137.94;1065621;55;20187;-84
2020/12/13 01:42:09;;;;;;;;;;;;;;;0.12;100.00;92140.91;1063663;55;20653;-84
2020/12/13 01:43:10;;;;;;;;;;;;;;;0.12;100.00;92143.53;1067894;55;20640;-84
2020/12/13 01:44:10;;;;;;;;;;;;;;;0.10;100.00;92145.81;1065715;55;20642;-85
2020/12/13 01:45:21;;;;;;;;;;;;;;;0.13;100.00;92151.06;1065932;55;20173;-85
2020/12/13 01:46:21;;;;;;;;;;;;;;;0.11;100.00;92149.94;1065921;55;20216;-85
2020/12/13 01:47:23;;;;;;;;;;;;;;;0.13;100.00;92151.06;1061549;56;20185;-86
2020/12/13 01:48:24;;;;;;;;;;;;;;;0.12;100.00;92157.44;1063800;55;20184;-85
2020/12/13 01:49:33;;;;;;;;;;;;;;;0.11;100.00;92155.94;1065886;55;20164;-83
2020/12/13 01:51:14;;;;;;;;;;;;;;;0.12;100.00;92156.69;1065993;55;20157;-84
2020/12/13 01:53:25;;;;;;;;;;;;;;;0.06;100.00;92151.03;1066418;55;20165;-84
2020/12/13 01:54:26;;;;;;;;;;;;;;;0.07;100.00;92151.78;1063750;55;20165;-84
2020/12/13 01:55:27;;;;;;;;;;;;;;;0.02;100.00;92149.53;1061410;56;20150;-84
2020/12/13 01:56:28;;;;;;;;;;;;;;;0.04;100.00;92158.53;1065686;55;20177;-85
2020/12/13 01:57:35;;;;;;;;;;;;;;;0.09;100.00;92160.03;1067822;55;20605;-85
2020/12/13 01:58:37;;;;;;;;;;;;;;;0.08;100.00;92156.66;1065818;55;20165;-85
2020/12/13 01:59:38;;;;;;;;;;;;;;;0.08;100.00;92166.44;1065639;55;20227;-86
2020/12/13 02:00:40;;;;;;;;;;;;;;;0.05;100.00;92170.56;1067718;55;21071;-84
2020/12/13 02:01:41;;;;;;;;;;;;;;;0.05;100.00;92170.56;1068408;55;20184;-85
2020/12/13 02:02:52;;;;;;;;;;;;;;;0.02;100.00;92170.56;1066086;55;21140;-85
2020/12/13 02:03:58;;;;;;;;;;;;;;;0.04;100.00;92168.28;1066498;55;21229;-83
2020/12/13 02:04:59;;;;;;;;;;;;;;;0.04;100.00;92173.53;1066137;55;20157;-85
2020/12/13 02:06:01;;;;;;;;;;;;;;;-0.03;100.00;92167.16;1066044;55;20266;-84
2020/12/13 02:07:02;;;;;;;;;;;;;;;0.06;100.00;92171.31;1068228;55;20165;-84
2020/12/13 02:08:04;;;;;;;;;;;;;;;0.07;100.00;92173.56;1065973;55;20180;-84
2020/12/13 02:09:09;;;;;;;;;;;;;;;0.06;100.00;92173.94;1068714;55;20176;-85
2020/12/13 02:10:11;;;;;;;;;;;;;;;0.05;100.00;92169.81;1070402;55;20207;-84
2020/12/13 02:11:11;;;;;;;;;;;;;;;0.02;100.00;92184.44;1068215;55;20203;-84
2020/12/13 02:12:12;;;;;;;;;;;;;;;0.03;100.00;92182.56;1068289;55;20251;-86
2020/12/13 02:13:13;;;;;;;;;;;;;;;0.01;100.00;92176.94;1066037;55;20161;-83
2020/12/13 02:14:13;;;;;;;;;;;;;;;0.05;100.00;92180.31;1065981;55;20178;-85
2020/12/13 02:15:13;;;;;;;;;;;;;;;0.08;100.00;92176.94;1070375;55;20672;-85
2020/12/13 02:16:15;;;;;;;;;;;;;;;0.21;100.00;92181.47;1072524;55;20673;-85
2020/12/13 02:17:15;;;;;;;;;;;;;;;0.18;100.00;92181.47;1070216;55;20267;-83
2020/12/13 02:18:16;;;;;;;;;;;;;;;0.16;100.00;92181.81;1068073;55;20258;-86
2020/12/13 02:19:17;;;;;;;;;;;;;;;0.20;100.00;92179.22;1068136;55;20254;-84
2020/12/13 02:20:17;;;;;;;;;;;;;;;0.23;100.00;92194.25;1068052;55;20164;-85
2020/12/13 02:21:17;;;;;;;;;;;;;;;0.18;100.00;92186.72;1066002;55;20180;-84
2020/12/13 02:22:19;;;;;;;;;;;;;;;0.21;100.00;92178.09;1065983;55;20182;-85
2020/12/13 02:23:21;;;;;;;;;;;;;;;0.19;100.00;92191.59;1068158;55;20169;-84
2020/12/13 02:24:22;;;;;;;;;;;;;;;0.16;100.00;92187.09;1065891;55;20273;-83
2020/12/13 02:25:23;;;;;;;;;;;;;;;0.18;100.00;92189.34;1068094;55;20258;-84
2020/12/13 02:26:23;;;;;;;;;;;;;;;0.32;100.00;92188.63;1065948;55;20188;-84
2020/12/13 02:27:27;;;;;;;;;;;;;;;0.25;100.00;92189.34;1068168;55;20657;-85
2020/12/13 02:28:28;;;;;;;;;;;;;;;0.19;100.00;92188.97;1065824;55;20196;-83
2020/12/13 02:29:28;;;;;;;;;;;;;;;0.22;100.00;92185.62;1063668;55;20247;-85
2020/12/13 02:30:29;;;;;;;;;;;;;;;0.18;100.00;92187.47;1065842;55;20208;-85
2020/12/13 02:31:30;;;;;;;;;;;;;;;0.14;100.00;92191.22;1065825;55;20177;-85
2020/12/13 02:32:31;;;;;;;;;;;;;;;0.11;100.00;92195.34;1065959;55;20165;-84
2020/12/13 02:33:31;;;;;;;;;;;;;;;0.06;100.00;92185.19;1067994;55;20282;-84
2020/12/13 02:34:32;;;;;;;;;;;;;;;0.05;100.00;92186.31;1067907;55;20710;-85
2020/12/13 02:35:33;;;;;;;;;;;;;;;0.05;100.00;92193.47;1065923;55;20258;-84
2020/12/13 02:36:33;;;;;;;;;;;;;;;0.04;100.00;92186.69;1067915;55;20245;-84
2020/12/13 02:37:35;;;;;;;;;;;;;;;-0.01;100.00;92185.16;1065970;55;20162;-85
2020/12/13 02:38:38;;;;;;;;;;;;;;;0.02;100.00;92188.94;1061683;55;20158;-84
2020/12/13 02:39:38;;;;;;;;;;;;;;;0.01;100.00;92196.06;1063693;55;20162;-83
2020/12/13 02:40:39;;;;;;;;;;;;;;;-0.03;100.00;92198.69;1065797;55;20192;-84
2020/12/13 02:41:39;;;;;;;;;;;;;;;-0.03;100.00;92195.31;1063730;55;20177;-84
2020/12/13 02:42:40;;;;;;;;;;;;;;;-0.03;100.00;92195.31;1065943;55;20637;-86
2020/12/13 02:43:40;;;;;;;;;;;;;;;-0.09;100.00;92196.78;1065729;55;20684;-84
2020/12/13 02:44:41;;;;;;;;;;;;;;;-0.08;100.00;92198.31;1061539;56;20150;-84
2020/12/13 02:45:42;;;;;;;;;;;;;;;-0.11;100.00;92202.41;1063831;55;20181;-84
2020/12/13 02:46:44;;;;;;;;;;;;;;;-0.11;100.00;92201.66;1065773;55;20723;-83
2020/12/13 02:47:45;;;;;;;;;;;;;;;-0.11;100.00;92207.66;1065885;55;20184;-83
2020/12/13 02:48:45;;;;;;;;;;;;;;;-0.03;100.00;92203.19;1065734;55;20158;-85
2020/12/13 02:49:46;;;;;;;;;;;;;;;-0.02;100.00;92212.56;1068084;55;20246;-83
2020/12/13 02:50:46;;;;;;;;;;;;;;;-0.05;100.00;92200.91;1068115;55;20184;-84
2020/12/13 02:51:47;;;;;;;;;;;;;;;-0.04;100.00;92209.56;1067942;55;20161;-85
2020/12/13 02:52:47;;;;;;;;;;;;;;;-0.05;100.00;92211.41;1067864;55;20253;-84
2020/12/13 02:53:48;;;;;;;;;;;;;;;-0.03;100.00;92216.31;1068064;55;20184;-85
2020/12/13 02:54:49;;;;;;;;;;;;;;;-0.05;100.00;92216.66;1063858;55;20213;-83
2020/12/13 02:55:50;;;;;;;;;;;;;;;-0.07;100.00;92218.94;1063718;55;20621;-86
2020/12/13 02:56:51;;;;;;;;;;;;;;;-0.05;100.00;92218.56;1067995;55;20172;-83
2020/12/13 02:57:51;;;;;;;;;;;;;;;-0.05;100.00;92218.56;1065827;55;20242;-83
2020/12/13 02:58:52;;;;;;;;;;;;;;;0.03;100.00;92221.97;1063586;55;20166;-85
2020/12/13 02:59:53;;;;;;;;;;;;;;;0.04;100.00;92223.47;1063709;55;20661;-87
2020/12/13 03:00:56;;;;;;;;;;;;;;;0.02;100.00;92217.84;1063768;55;20166;-85
2020/12/13 03:01:56;;;;;;;;;;;;;;;-0.03;100.00;92217.06;1063607;55;20158;-85
2020/12/13 03:02:58;;;;;;;;;;;;;;;-0.01;100.00;92219.31;1065748;55;20586;-86
2020/12/13 03:03:58;;;;;;;;;;;;;;;-0.04;100.00;92218.19;1063416;55;20154;-83
2020/12/13 03:04:59;;;;;;;;;;;;;;;-0.04;100.00;92218.19;1061349;56;20185;-84
2020/12/13 03:05:59;;;;;;;;;;;;;;;-0.05;100.00;92216.66;1063558;55;20676;-85
2020/12/13 03:07:00;;;;;;;;;;;;;;;-0.02;100.00;92218.56;1065771;55;20168;-85
2020/12/13 03:08:00;;;;;;;;;;;;;;;-0.03;100.00;92219.69;1061648;56;20256;-84
2020/12/13 03:09:01;;;;;;;;;;;;;;;-0.04;100.00;92220.81;1063640;55;20161;-85
2020/12/13 03:10:01;;;;;;;;;;;;;;;-0.02;100.00;92220.44;1066061;55;20157;-84
2020/12/13 03:11:02;;;;;;;;;;;;;;;-0.02;100.00;92218.56;1065930;55;20169;-85
2020/12/13 03:12:03;;;;;;;;;;;;;;;-0.01;100.00;92222.69;1068056;55;20259;-86
2020/12/13 03:13:04;;;;;;;;;;;;;;;0.04;100.00;92223.47;1068023;55;20707;-85
2020/12/13 03:14:07;;;;;;;;;;;;;;;0.10;100.00;92222.75;1068169;55;20164;-85
2020/12/13 03:15:08;;;;;;;;;;;;;;;0.08;100.00;92222.34;1065753;55;20193;-83
2020/12/13 03:16:09;;;;;;;;;;;;;;;0.06;100.00;92234.37;1065789;55;20204;-85
2020/12/13 03:17:09;;;;;;;;;;;;;;;0.07;100.00;92225.34;1063770;55;20180;-84
2020/12/13 03:18:10;;;;;;;;;;;;;;;0.08;100.00;92232.09;1065891;55;20270;-86
2020/12/13 03:19:11;;;;;;;;;;;;;;;0.05;100.00;92232.88;1068124;55;20640;-84
2020/12/13 03:20:11;;;;;;;;;;;;;;;0.07;100.00;92233.22;1065884;55;20165;-84
2020/12/13 03:21:12;;;;;;;;;;;;;;;0.06;100.00;92226.47;1063799;55;20181;-85
2020/12/13 03:22:13;;;;;;;;;;;;;;;0.04;100.00;92244.47;1065939;55;20149;-86
2020/12/13 03:23:13;;;;;;;;;;;;;;;0.01;100.00;92232.09;1068256;55;20637;-85
2020/12/13 03:24:15;;;;;;;;;;;;;;;0.00;100.00;92233.97;1068032;55;20149;-84
2020/12/13 03:25:18;;;;;;;;;;;;;;;0.02;100.00;92234.34;1065982;55;20165;-86
2020/12/13 03:26:18;;;;;;;;;;;;;;;0.03;100.00;92237.72;1063547;55;20176;-83
2020/12/13 03:27:24;;;;;;;;;;;;;;;-0.01;100.00;92235.81;1065944;55;20154;-85
2020/12/13 03:28:24;;;;;;;;;;;;;;;0.00;100.00;92247.13;1064202;55;20689;-84
2020/12/13 03:29:25;;;;;;;;;;;;;;;0.01;100.00;92239.97;1068122;55;20208;-84
2020/12/13 03:30:27;;;;;;;;;;;;;;;-0.01;100.00;92248.97;1065757;55;20302;-83
2020/12/13 03:31:27;;;;;;;;;;;;;;;-0.01;100.00;92246.34;1065774;55;20275;-85
2020/12/13 03:32:28;;;;;;;;;;;;;;;0.03;100.00;92242.97;1065581;55;20176;-86
2020/12/13 03:33:28;;;;;;;;;;;;;;;0.01;100.00;92250.50;1065663;55;20282;-84
2020/12/13 03:34:29;;;;;;;;;;;;;;;0.05;100.00;92246.00;1067940;55;20653;-84
2020/12/13 03:35:29;;;;;;;;;;;;;;;0.03;100.00;92250.84;1068089;55;20161;-85
2020/12/13 03:36:31;;;;;;;;;;;;;;;0.05;100.00;92251.25;1068019;55;20204;-85
2020/12/13 03:37:31;;;;;;;;;;;;;;;0.05;100.00;92259.13;1065965;55;20157;-84
2020/12/13 03:38:32;;;;;;;;;;;;;;;0.11;100.00;92260.28;1065912;55;20176;-85
2020/12/13 03:39:32;;;;;;;;;;;;;;;0.08;100.00;92259.13;1067926;55;20261;-84
2020/12/13 03:40:33;;;;;;;;;;;;;;;0.05;100.00;92265.13;1067966;55;20633;-85
2020/12/13 03:41:33;;;;;;;;;;;;;;;0.03;100.00;92264.75;1065820;55;20568;-85
2020/12/13 03:42:34;;;;;;;;;;;;;;;0.00;100.00;92262.88;1065752;55;20169;-85
2020/12/13 03:43:34;;;;;;;;;;;;;;;-0.01;100.00;92272.59;1065692;55;20169;-85
2020/12/13 03:44:35;;;;;;;;;;;;;;;-0.02;100.00;92265.09;1070124;55;20184;-85
2020/12/13 03:45:35;;;;;;;;;;;;;;;-0.03;100.00;92268.84;1068024;55;20165;-85
2020/12/13 03:46:36;;;;;;;;;;;;;;;-0.06;100.00;92278.22;1065692;55;20188;-84
2020/12/13 03:47:36;;;;;;;;;;;;;;;-0.05;100.00;92282.34;1063517;55;20162;-85
2020/12/13 03:48:37;;;;;;;;;;;;;;;-0.01;100.00;92283.09;1065731;55;20153;-86
2020/12/13 03:49:37;;;;;;;;;;;;;;;-0.01;100.00;92283.09;1065791;55;20544;-84
2020/12/13 03:50:40;;;;;;;;;;;;;;;-0.03;100.00;92284.62;1065847;55;20293;-85
2020/12/13 03:51:41;;;;;;;;;;;;;;;-0.09;100.00;92278.97;1065825;55;20258;-86
2020/12/13 03:52:41;;;;;;;;;;;;;;;0.05;100.00;92277.53;1065905;55;20258;-86
2020/12/13 03:53:42;;;;;;;;;;;;;;;0.02;100.00;92276.38;1065901;55;20614;-84
2020/12/13 03:54:42;;;;;;;;;;;;;;;0.03;100.00;92285.00;1068019;55;21145;-83
2020/12/13 03:55:43;;;;;;;;;;;;;;;-0.01;100.00;92285.75;1068156;55;20196;-85
2020/12/13 03:56:43;;;;;;;;;;;;;;;0.02;100.00;92280.87;1067885;55;20165;-85
2020/12/13 03:57:44;;;;;;;;;;;;;;;0.01;100.00;92289.88;1065860;55;20235;-86
2020/12/13 03:58:44;;;;;;;;;;;;;;;-0.05;100.00;92290.22;1067911;55;20165;-84
2020/12/13 03:59:45;;;;;;;;;;;;;;;-0.03;100.00;92288.00;1067572;55;20177;-84
2020/12/13 04:00:45;;;;;;;;;;;;;;;-0.04;100.00;92289.13;1065800;55;20181;-84
2020/12/13 04:01:45;;;;;;;;;;;;;;;-0.02;100.00;92286.13;1063777;55;20606;-84
2020/12/13 04:02:46;;;;;;;;;;;;;;;0.00;100.00;92289.13;1067921;55;20172;-84
2020/12/13 04:03:46;;;;;;;;;;;;;;;-0.02;100.00;92286.13;1065840;55;20169;-83
2020/12/13 04:04:47;;;;;;;;;;;;;;;0.05;100.00;92293.28;1065906;55;20251;-85
2020/12/13 04:05:47;;;;;;;;;;;;;;;0.03;100.00;92287.63;1068226;55;20245;-83
2020/12/13 04:06:48;;;;;;;;;;;;;;;0.07;100.00;92293.66;1065794;55;20158;-82
2020/12/13 04:07:48;;;;;;;;;;;;;;;0.04;100.00;92292.50;1063441;55;20173;-84
2020/12/13 04:08:49;;;;;;;;;;;;;;;0.13;100.00;92292.94;1065832;55;20181;-83
2020/12/13 04:09:49;;;;;;;;;;;;;;;0.12;100.00;92290.66;1067846;55;20161;-84
2020/12/13 04:10:50;;;;;;;;;;;;;;;0.12;100.00;92299.31;1065782;55;20153;-85
2020/12/13 04:11:51;;;;;;;;;;;;;;;0.08;100.00;92303.78;1065797;55;20154;-84
2020/12/13 04:12:53;;;;;;;;;;;;;;;0.07;100.00;92298.91;1063729;55;20741;-83
2020/12/13 04:13:53;;;;;;;;;;;;;;;0.10;100.00;92298.19;1065748;55;20184;-84
2020/12/13 04:14:54;;;;;;;;;;;;;;;0.04;100.00;92294.38;1065606;55;20188;-85
2020/12/13 04:15:54;;;;;;;;;;;;;;;0.04;100.00;92304.91;1067766;55;20234;-85
2020/12/13 04:16:55;;;;;;;;;;;;;;;0.06;100.00;92292.91;1065593;55;20641;-85
2020/12/13 04:17:55;;;;;;;;;;;;;;;0.10;100.00;92292.94;1065518;55;20161;-84
2020/12/13 04:18:56;;;;;;;;;;;;;;;0.05;100.00;92295.91;1063451;55;20638;-86
2020/12/13 04:19:57;;;;;;;;;;;;;;;0.05;100.00;92291.41;1061271;55;20162;-85
2020/12/13 04:20:57;;;;;;;;;;;;;;;0.08;100.00;92297.78;1063389;55;20188;-84
2020/12/13 04:21:58;;;;;;;;;;;;;;;0.06;100.00;92303.41;1065481;55;20161;-83
2020/12/13 04:22:58;;;;;;;;;;;;;;;0.08;100.00;92303.78;1065533;55;20185;-84
2020/12/13 04:23:59;;;;;;;;;;;;;;;0.04;100.00;92302.28;1065296;55;20177;-84
2020/12/13 04:24:59;;;;;;;;;;;;;;;0.02;100.00;92313.16;1063476;55;20258;-84
2020/12/13 04:26:00;;;;;;;;;;;;;;;0.02;100.00;92307.91;1061417;56;20655;-84
2020/12/13 04:27:01;;;;;;;;;;;;;;;0.06;100.00;92310.56;1065779;55;20206;-85
2020/12/13 04:28:01;;;;;;;;;;;;;;;0.06;100.00;92313.94;1063549;55;20149;-84
2020/12/13 04:29:01;;;;;;;;;;;;;;;0.06;100.00;92315.81;1063508;55;20641;-84
2020/12/13 04:30:03;;;;;;;;;;;;;;;0.06;100.00;92318.44;1063508;55;20161;-84
2020/12/13 04:31:04;;;;;;;;;;;;;;;0.05;100.00;92322.19;1065842;55;20213;-86
2020/12/13 04:32:07;;;;;;;;;;;;;;;0.04;100.00;92318.03;1065880;55;20675;-85
2020/12/13 04:33:10;;;;;;;;;;;;;;;0.01;100.00;92314.28;1065735;55;20278;-84
2020/12/13 04:34:11;;;;;;;;;;;;;;;0.03;100.00;92321.78;1065788;55;20626;-85
2020/12/13 04:35:12;;;;;;;;;;;;;;;0.04;100.00;92313.53;1065706;55;20165;-85
2020/12/13 04:36:12;;;;;;;;;;;;;;;0.02;100.00;92318.41;1063373;55;20161;-85
2020/12/13 04:37:13;;;;;;;;;;;;;;;0.03;100.00;92314.66;1063551;55;20176;-85
2020/12/13 04:38:13;;;;;;;;;;;;;;;0.06;100.00;92307.91;1063520;55;20180;-84
2020/12/13 04:39:14;;;;;;;;;;;;;;;0.07;100.00;92312.03;1063399;55;20173;-83
2020/12/13 04:40:15;;;;;;;;;;;;;;;0.01;100.00;92316.91;1067618;55;20158;-84
2020/12/13 04:41:17;;;;;;;;;;;;;;;0.11;100.00;92316.19;1067680;55;20168;-86
2020/12/13 04:42:18;;;;;;;;;;;;;;;0.14;100.00;92314.72;1067464;55;20184;-85
2020/12/13 04:43:19;;;;;;;;;;;;;;;0.16;100.00;92322.97;1065652;55;20173;-84
2020/12/13 04:44:20;;;;;;;;;;;;;;;0.25;100.00;92320.75;1065607;55;20653;-85
2020/12/13 04:45:21;;;;;;;;;;;;;;;0.15;100.00;92321.47;1065515;55;20683;-84
2020/12/13 04:46:26;;;;;;;;;;;;;;;0.19;100.00;92322.25;1065560;55;20165;-85
2020/12/13 04:47:28;;;;;;;;;;;;;;;0.16;100.00;92321.09;1067815;55;21078;-85
2020/12/13 04:48:29;;;;;;;;;;;;;;;0.14;100.00;92323.34;1069762;55;20216;-84
2020/12/13 04:49:32;;;;;;;;;;;;;;;0.15;100.00;92316.22;1067556;55;20161;-83
2020/12/13 04:50:37;;;;;;;;;;;;;;;0.13;100.00;92321.06;1065549;55;20640;-85
2020/12/13 04:51:41;;;;;;;;;;;;;;;0.06;100.00;92328.94;1067634;55;20165;-84
2020/12/13 04:52:42;;;;;;;;;;;;;;;0.10;100.00;92316.56;1063193;55;20166;-85
2020/12/13 04:53:48;;;;;;;;;;;;;;;0.20;100.00;92319.22;1065076;55;20177;-84
2020/12/13 04:54:50;;;;;;;;;;;;;;;0.19;100.00;92319.59;1067587;55;20264;-84
2020/12/13 04:55:57;;;;;;;;;;;;;;;0.14;100.00;92318.09;1065393;55;20200;-84
2020/12/13 04:56:58;;;;;;;;;;;;;;;0.17;100.00;92319.22;1061515;55;20196;-85
2020/12/13 04:58:00;;;;;;;;;;;;;;;0.13;100.00;92323.69;1065732;55;20289;-84
2020/12/13 04:59:01;;;;;;;;;;;;;;;0.18;100.00;92324.13;1069845;55;20650;-85
2020/12/13 05:00:03;;;;;;;;;;;;;;;0.13;100.00;92321.84;1067770;55;20697;-83
2020/12/13 05:01:03;;;;;;;;;;;;;;;0.15;100.00;92322.22;1065638;55;20240;-84
2020/12/13 05:02:10;;;;;;;;;;;;;;;0.18;100.00;92336.50;1065612;55;20648;-84
2020/12/13 05:03:12;;;;;;;;;;;;;;;0.18;100.00;92332.00;1063434;55;20980;-84
2020/12/13 05:04:12;;;;;;;;;;;;;;;0.19;100.00;92338.75;1063366;55;20243;-84
2020/12/13 05:05:14;;;;;;;;;;;;;;;0.20;100.00;92334.25;1063229;55;20201;-85
2020/12/13 05:06:15;;;;;;;;;;;;;;;0.16;100.00;92347.38;1065452;55;20583;-83
2020/12/13 05:07:20;;;;;;;;;;;;;;;0.23;100.00;92341.41;1065456;55;20192;-84
2020/12/13 05:08:21;;;;;;;;;;;;;;;0.17;100.00;92335.72;1063404;55;20162;-85
2020/12/13 05:09:21;;;;;;;;;;;;;;;0.24;100.00;92340.28;1063430;55;20653;-84
2020/12/13 05:10:23;;;;;;;;;;;;;;;0.18;100.00;92345.12;1063408;55;20176;-84
2020/12/13 05:11:23;;;;;;;;;;;;;;;0.19;100.00;92338.75;1063402;55;20243;-84
2020/12/13 05:12:24;;;;;;;;;;;;;;;0.23;100.00;92344.03;1067296;55;20161;-84
2020/12/13 05:13:24;;;;;;;;;;;;;;;0.19;100.00;92349.25;1067585;55;20623;-84
2020/12/13 05:14:25;;;;;;;;;;;;;;;0.17;100.00;92345.50;1065641;55;20153;-84
2020/12/13 05:15:26;;;;;;;;;;;;;;;0.16;100.00;92344.00;1065476;55;20192;-83
2020/12/13 05:16:27;;;;;;;;;;;;;;;0.17;100.00;92348.13;1065311;55;20153;-84
2020/12/13 05:17:27;;;;;;;;;;;;;;;0.17;100.00;92348.87;1063133;55;20335;-83
2020/12/13 05:18:29;;;;;;;;;;;;;;;0.17;100.00;92345.50;1065327;55;20165;-84
2020/12/13 05:19:29;;;;;;;;;;;;;;;0.20;100.00;92350.75;1065403;55;21156;-84